createdAt,value
2022-08-10T00:01:51.347Z,23.50
2022-08-10T00:04:21.549Z,23.50
2022-08-10T00:06:53.481Z,23.40
2022-08-10T00:09:22.260Z,23.40
2022-08-10T00:11:53.034Z,23.40
2022-08-10T00:14:20.568Z,23.40
2022-08-10T00:16:48.161Z,23.40
2022-08-10T00:19:16.665Z,23.30
2022-08-10T00:21:44.979Z,23.30
2022-08-10T00:24:12.329Z,23.20
2022-08-10T00:28:02.852Z,23.10
2022-08-10T00:29:26.675Z,23.10
2022-08-10T00:31:58.862Z,23.10
2022-08-10T00:34:28.427Z,23.10
2022-08-10T00:36:56.917Z,23.10
2022-08-10T00:39:24.479Z,23.10
2022-08-10T00:42:01.688Z,23.10
2022-08-10T00:44:36.604Z,23.10
2022-08-10T00:47:04.277Z,23.10
2022-08-10T00:49:33.318Z,23.00
2022-08-10T00:52:01.022Z,22.90
2022-08-10T00:54:29.427Z,22.90
2022-08-10T00:57:16.078Z,22.80
2022-08-10T00:59:58.856Z,22.80
2022-08-10T01:02:30.309Z,22.80
2022-08-10T01:05:02.658Z,22.80
2022-08-10T01:08:01.112Z,22.80
2022-08-10T01:10:53.644Z,22.80
2022-08-10T01:13:44.450Z,22.80
2022-08-10T01:16:17.735Z,22.80
2022-08-10T01:18:55.199Z,22.80
2022-08-10T01:21:34.462Z,22.80
2022-08-10T01:24:39.154Z,22.80
2022-08-10T01:27:23.074Z,22.80
2022-08-10T01:30:06.597Z,22.70
2022-08-10T01:32:47.557Z,22.70
2022-08-10T01:35:33.954Z,22.60
2022-08-10T01:38:15.559Z,22.60
2022-08-10T01:40:55.814Z,22.60
2022-08-10T01:43:28.297Z,22.50
2022-08-10T01:46:00.111Z,22.50
2022-08-10T01:48:42.239Z,22.50
2022-08-10T01:51:37.887Z,22.50
2022-08-10T01:54:12.986Z,22.40
2022-08-10T01:56:46.179Z,22.40
2022-08-10T01:59:32.840Z,22.40
2022-08-10T02:02:09.653Z,22.40
2022-08-10T02:04:40.870Z,22.40
2022-08-10T02:07:13.287Z,22.40
2022-08-10T02:09:43.502Z,22.30
2022-08-10T02:12:15.909Z,22.30
2022-08-10T02:14:48.352Z,22.30
2022-08-10T02:18:00.140Z,22.30
2022-08-10T02:20:12.880Z,22.30
2022-08-10T02:22:41.342Z,22.30
2022-08-10T02:25:39.961Z,22.30
2022-08-10T02:27:58.591Z,22.20
2022-08-10T02:30:27.523Z,22.20
2022-08-10T02:32:56.461Z,22.20
2022-08-10T02:35:24.781Z,22.10
2022-08-10T02:38:05.145Z,22.10
2022-08-10T02:45:15.102Z,22.00
2022-08-10T02:45:22.201Z,22.00
2022-08-10T02:46:45.491Z,22.00
2022-08-10T02:49:21.707Z,21.90
2022-08-10T02:52:06.266Z,21.90
2022-08-10T02:54:51.232Z,22.00
2022-08-10T02:57:33.627Z,21.90
2022-08-10T03:00:07.637Z,21.90
2022-08-10T03:02:37.969Z,21.80
2022-08-10T03:05:11.522Z,21.70
2022-08-10T03:08:05.092Z,21.70
2022-08-10T03:10:39.557Z,21.70
2022-08-10T03:13:11.111Z,21.60
2022-08-10T03:15:39.452Z,21.70
2022-08-10T03:18:08.047Z,21.70
2022-08-10T03:20:40.825Z,21.70
2022-08-10T03:23:13.609Z,21.70
2022-08-10T03:25:54.203Z,21.70
2022-08-10T03:28:23.542Z,21.70
2022-08-10T03:30:51.642Z,21.70
2022-08-10T03:33:22.299Z,21.60
2022-08-10T03:36:42.445Z,21.60
2022-08-10T03:38:41.260Z,21.60
2022-08-10T03:41:15.890Z,21.60
2022-08-10T03:43:47.826Z,21.60
2022-08-10T03:46:21.298Z,21.60
2022-08-10T03:48:53.423Z,21.50
2022-08-10T03:51:22.814Z,21.50
2022-08-10T03:54:03.454Z,21.50
2022-08-10T03:56:35.904Z,21.50
2022-08-10T03:59:04.372Z,21.50
2022-08-10T04:02:47.140Z,21.40
2022-08-10T04:04:24.147Z,21.40
2022-08-10T04:06:54.619Z,21.30
2022-08-10T04:09:42.632Z,21.30
2022-08-10T04:12:16.471Z,21.30
2022-08-10T04:14:51.073Z,21.30
2022-08-10T04:17:56.846Z,21.40
2022-08-10T04:20:19.894Z,21.40
2022-08-10T04:22:56.285Z,21.40
2022-08-10T04:25:26.499Z,21.40
2022-08-10T04:27:54.346Z,21.50
2022-08-10T04:30:21.856Z,21.50
2022-08-10T04:32:54.158Z,21.40
2022-08-10T04:35:24.371Z,21.40
2022-08-10T04:37:56.146Z,21.40
2022-08-10T04:40:28.638Z,21.50
2022-08-10T04:43:05.774Z,21.50
2022-08-10T04:45:48.328Z,21.50
2022-08-10T04:48:41.419Z,21.60
2022-08-10T04:51:17.609Z,21.60
2022-08-10T04:54:03.923Z,21.70
2022-08-10T04:56:40.214Z,21.70
2022-08-10T04:59:09.584Z,21.70
2022-08-10T05:02:28.270Z,21.80
2022-08-10T05:04:35.810Z,21.90
2022-08-10T05:07:16.659Z,22.00
2022-08-10T05:10:01.016Z,22.00
2022-08-10T05:12:38.456Z,22.10
2022-08-10T05:15:09.757Z,22.20
2022-08-10T05:17:38.523Z,22.30
2022-08-10T05:20:08.063Z,22.40
2022-08-10T05:22:45.859Z,22.50
2022-08-10T05:25:18.804Z,22.60
2022-08-10T05:27:47.327Z,22.70
2022-08-10T05:30:18.177Z,22.80
2022-08-10T05:32:57.872Z,22.90
2022-08-10T05:35:28.135Z,23.10
2022-08-10T05:38:09.422Z,23.40
2022-08-10T05:40:47.201Z,23.60
2022-08-10T05:43:23.728Z,23.80
2022-08-10T05:46:18.184Z,24.00
2022-08-10T05:48:59.360Z,24.10
2022-08-10T05:51:30.085Z,24.30
2022-08-10T05:54:02.075Z,24.40
2022-08-10T05:56:54.302Z,24.50
2022-08-10T06:00:33.349Z,24.70
2022-08-10T06:02:44.996Z,24.80
2022-08-10T06:05:16.168Z,24.90
2022-08-10T06:08:06.617Z,25.00
2022-08-10T06:12:16.521Z,25.10
2022-08-10T06:13:57.986Z,25.20
2022-08-10T06:16:34.910Z,25.30
2022-08-10T06:19:05.254Z,25.50
2022-08-10T06:21:34.506Z,25.60
2022-08-10T06:24:03.102Z,25.80
2022-08-10T06:26:32.146Z,25.90
2022-08-10T06:29:07.197Z,26.00
2022-08-10T06:31:48.984Z,26.10
2022-08-10T06:34:23.045Z,26.10
2022-08-10T06:36:53.171Z,26.30
2022-08-10T06:39:33.500Z,26.40
2022-08-10T06:42:24.069Z,26.50
2022-08-10T06:44:57.475Z,26.60
2022-08-10T06:47:51.533Z,26.70
2022-08-10T06:50:45.370Z,26.70
2022-08-10T06:53:54.361Z,26.90
2022-08-10T06:56:37.778Z,27.00
2022-08-10T06:59:27.911Z,27.20
2022-08-10T07:02:06.649Z,27.30
2022-08-10T07:04:48.279Z,27.40
2022-08-10T07:07:19.280Z,27.60
2022-08-10T07:09:49.379Z,27.70
2022-08-10T07:12:19.269Z,27.90
2022-08-10T07:14:47.781Z,27.90
2022-08-10T07:17:19.214Z,27.90
2022-08-10T07:19:52.848Z,27.90
2022-08-10T07:23:55.942Z,27.90
2022-08-10T07:25:14.342Z,27.80
2022-08-10T07:28:00.460Z,27.90
2022-08-10T07:30:31.774Z,27.90
2022-08-10T07:33:02.679Z,28.10
2022-08-10T07:35:37.289Z,28.40
2022-08-10T07:38:25.714Z,28.60
2022-08-10T07:40:54.683Z,28.70
2022-08-10T07:43:25.338Z,28.90
2022-08-10T07:45:53.709Z,29.00
2022-08-10T07:48:27.343Z,29.00
2022-08-10T07:50:59.466Z,29.10
2022-08-10T07:53:39.980Z,29.20
2022-08-10T07:56:21.311Z,29.30
2022-08-10T07:59:01.792Z,29.40
2022-08-10T08:01:32.070Z,29.60
2022-08-10T08:04:05.713Z,29.70
2022-08-10T08:06:41.000Z,29.80
2022-08-10T08:09:09.422Z,29.90
2022-08-10T08:11:44.049Z,29.90
2022-08-10T08:14:14.840Z,29.90
2022-08-10T08:16:46.958Z,30.00
2022-08-10T08:19:37.145Z,30.10
2022-08-10T08:24:05.241Z,30.20
2022-08-10T08:24:55.622Z,30.40
2022-08-10T08:27:24.984Z,30.50
2022-08-10T08:29:53.046Z,30.70
2022-08-10T08:32:25.217Z,30.80
2022-08-10T08:35:02.839Z,30.90
2022-08-10T08:38:30.249Z,31.00
2022-08-10T08:40:29.426Z,31.00
2022-08-10T08:43:27.402Z,31.10
2022-08-10T08:46:17.780Z,31.00
2022-08-10T08:49:06.906Z,31.10
2022-08-10T08:52:07.825Z,31.20
2022-08-10T08:55:52.318Z,31.30
2022-08-10T08:58:08.679Z,31.40
2022-08-10T09:00:57.850Z,31.60
2022-08-10T09:03:55.329Z,31.70
2022-08-10T09:06:47.032Z,31.80
2022-08-10T09:09:17.267Z,31.80
2022-08-10T09:12:03.250Z,32.00
2022-08-10T09:14:58.864Z,32.00
2022-08-10T09:17:54.090Z,32.10
2022-08-10T09:20:42.432Z,32.00
2022-08-10T09:24:04.038Z,32.10
2022-08-10T09:26:22.271Z,32.10
2022-08-10T09:29:12.068Z,32.20
2022-08-10T09:33:05.413Z,32.30
2022-08-10T09:36:26.998Z,32.50
2022-08-10T09:38:23.008Z,32.60
2022-08-10T09:41:09.109Z,32.70
2022-08-10T09:43:51.041Z,32.70
2022-08-10T09:46:28.403Z,32.90
2022-08-10T09:49:05.733Z,33.00
2022-08-10T09:51:57.127Z,33.10
2022-08-10T09:55:02.216Z,33.20
2022-08-10T09:57:41.561Z,33.20
2022-08-10T10:00:16.585Z,33.20
2022-08-10T10:02:50.791Z,33.10
2022-08-10T10:05:50.402Z,33.10
2022-08-10T10:08:28.159Z,33.00
2022-08-10T10:11:09.663Z,33.00
2022-08-10T10:14:11.862Z,33.10
2022-08-10T10:17:23.653Z,33.20
2022-08-10T10:19:55.141Z,33.40
2022-08-10T10:23:07.172Z,33.40
2022-08-10T10:25:52.588Z,33.50
2022-08-10T10:28:57.859Z,33.50
2022-08-10T10:31:26.119Z,33.50
2022-08-10T10:34:12.155Z,33.50
2022-08-10T10:36:42.729Z,33.50
2022-08-10T10:39:14.416Z,33.60
2022-08-10T10:42:03.574Z,33.50
2022-08-10T10:44:42.569Z,33.50
2022-08-10T10:47:38.364Z,33.40
2022-08-10T10:50:35.929Z,33.40
2022-08-10T10:53:26.421Z,33.50
2022-08-10T10:56:20.042Z,33.50
2022-08-10T10:59:16.142Z,33.50
2022-08-10T11:02:21.798Z,33.50
2022-08-10T11:05:28.331Z,33.50
2022-08-10T11:08:28.740Z,33.40
2022-08-10T11:11:02.033Z,33.50
2022-08-10T11:14:25.409Z,33.70
2022-08-10T11:16:57.711Z,33.80
2022-08-10T11:20:04.154Z,33.90
2022-08-10T11:22:42.406Z,34.00
2022-08-10T11:25:21.576Z,34.00
2022-08-10T11:28:11.371Z,34.00
2022-08-10T11:30:55.654Z,34.10
2022-08-10T11:34:11.266Z,34.30
2022-08-10T11:36:43.202Z,34.30
2022-08-10T11:39:19.293Z,34.30
2022-08-10T11:42:09.451Z,34.20
2022-08-10T11:45:03.743Z,34.00
2022-08-10T11:47:45.320Z,34.00
2022-08-10T11:50:37.420Z,34.00
2022-08-10T11:53:27.801Z,34.00
2022-08-10T11:56:11.324Z,34.00
2022-08-10T11:59:16.463Z,33.90
2022-08-10T12:01:47.213Z,33.90
2022-08-10T12:04:16.746Z,34.00
2022-08-10T12:07:00.346Z,33.90
2022-08-10T12:10:10.082Z,33.90
2022-08-10T12:12:17.191Z,33.90
2022-08-10T12:15:09.179Z,33.90
2022-08-10T12:17:42.729Z,33.90
2022-08-10T12:20:35.194Z,34.00
2022-08-10T12:23:12.082Z,34.10
2022-08-10T12:25:56.032Z,34.20
2022-08-10T12:28:50.545Z,34.30
2022-08-10T12:31:25.124Z,34.30
2022-08-10T12:34:36.504Z,34.50
2022-08-10T12:37:14.186Z,34.40
2022-08-10T12:43:13.076Z,34.30
2022-08-10T12:46:06.709Z,34.40
2022-08-10T12:48:42.759Z,34.40
2022-08-10T12:51:24.138Z,34.40
2022-08-10T12:54:10.844Z,34.50
2022-08-10T12:56:47.272Z,34.50
2022-08-10T12:59:15.288Z,34.40
2022-08-10T13:02:07.985Z,34.30
2022-08-10T13:04:40.473Z,34.20
2022-08-10T13:07:09.392Z,34.20
2022-08-10T13:09:55.509Z,34.10
2022-08-10T13:12:35.232Z,34.00
2022-08-10T13:15:48.188Z,34.00
2022-08-10T13:18:25.339Z,34.00
2022-08-10T13:21:00.818Z,34.00
2022-08-10T13:23:33.728Z,33.90
2022-08-10T13:26:02.857Z,33.90
2022-08-10T13:28:53.187Z,33.90
2022-08-10T13:32:03.751Z,33.90
2022-08-10T13:34:41.472Z,33.90
2022-08-10T13:37:23.069Z,33.90
2022-08-10T13:39:59.108Z,33.90
2022-08-10T13:42:33.200Z,33.80
2022-08-10T13:45:09.305Z,33.80
2022-08-10T13:47:49.397Z,33.80
2022-08-10T13:50:35.142Z,33.80
2022-08-10T13:53:15.948Z,33.90
2022-08-10T13:55:53.238Z,33.80
2022-08-10T13:58:30.689Z,33.90
2022-08-10T14:01:02.258Z,33.80
2022-08-10T14:03:37.663Z,33.80
2022-08-10T14:06:07.110Z,33.80
2022-08-10T14:08:36.377Z,33.80
2022-08-10T14:11:12.489Z,33.70
2022-08-10T14:13:47.123Z,33.70
2022-08-10T14:16:16.047Z,33.60
2022-08-10T14:18:45.222Z,33.50
2022-08-10T14:21:14.500Z,33.50
2022-08-10T14:23:52.260Z,33.50
2022-08-10T14:26:30.826Z,33.50
2022-08-10T14:29:05.600Z,33.40
2022-08-10T14:31:36.185Z,33.40
2022-08-10T14:34:08.726Z,33.40
2022-08-10T14:36:48.035Z,33.40
2022-08-10T14:39:28.833Z,33.40
2022-08-10T14:42:02.546Z,33.40
2022-08-10T14:44:52.912Z,33.40
2022-08-10T14:47:53.359Z,33.40
2022-08-10T14:50:31.564Z,33.40
2022-08-10T14:53:09.198Z,33.30
2022-08-10T14:55:58.712Z,33.30
2022-08-10T14:58:35.992Z,33.20
2022-08-10T15:01:08.172Z,33.20
2022-08-10T15:04:00.905Z,33.20
2022-08-10T15:06:35.892Z,33.10
2022-08-10T15:09:19.464Z,33.00
2022-08-10T15:12:12.933Z,33.00
2022-08-10T15:14:44.884Z,32.90
2022-08-10T15:17:26.355Z,32.80
2022-08-10T15:20:03.167Z,32.80
2022-08-10T15:22:38.329Z,32.80
2022-08-10T15:25:17.902Z,32.80
2022-08-10T15:27:54.659Z,32.70
2022-08-10T15:30:31.863Z,32.70
2022-08-10T15:34:00.263Z,32.70
2022-08-10T15:36:38.197Z,32.60
2022-08-10T15:39:17.274Z,32.60
2022-08-10T15:42:02.837Z,32.50
2022-08-10T15:44:47.380Z,32.40
2022-08-10T15:47:21.753Z,32.40
2022-08-10T15:49:58.725Z,32.40
2022-08-10T15:52:40.070Z,32.40
2022-08-10T15:55:41.581Z,32.30
2022-08-10T15:58:38.952Z,32.30
2022-08-10T16:02:14.007Z,32.30
2022-08-10T16:04:31.874Z,32.20
2022-08-10T16:07:06.208Z,32.20
2022-08-10T16:10:22.649Z,32.20
2022-08-10T16:12:59.732Z,32.10
2022-08-10T16:15:30.106Z,32.10
2022-08-10T16:18:01.978Z,32.00
2022-08-10T16:20:48.031Z,32.00
2022-08-10T16:23:34.936Z,31.90
2022-08-10T16:26:14.602Z,31.80
2022-08-10T16:28:57.877Z,31.80
2022-08-10T16:31:27.766Z,31.80
2022-08-10T16:33:59.497Z,31.70
2022-08-10T16:36:44.806Z,31.70
2022-08-10T16:39:58.890Z,31.70
2022-08-10T16:42:18.084Z,31.60
2022-08-10T16:44:52.609Z,31.60
2022-08-10T16:47:27.266Z,31.40
2022-08-10T16:49:57.367Z,31.50
2022-08-10T16:52:27.315Z,31.40
2022-08-10T16:55:17.246Z,31.30
2022-08-10T16:57:55.960Z,31.30
2022-08-10T17:00:24.802Z,31.20
2022-08-10T17:02:57.249Z,31.20
2022-08-10T17:06:10.637Z,31.10
2022-08-10T17:08:19.185Z,31.10
2022-08-10T17:10:46.437Z,31.00
2022-08-10T17:13:15.078Z,31.00
2022-08-10T17:15:50.557Z,30.90
2022-08-10T17:18:27.718Z,30.90
2022-08-10T17:21:00.596Z,30.90
2022-08-10T17:23:32.587Z,30.80
2022-08-10T17:26:04.089Z,30.70
2022-08-10T17:28:35.268Z,30.70
2022-08-10T17:31:36.175Z,30.70
2022-08-10T17:34:13.747Z,30.60
2022-08-10T17:36:44.782Z,30.50
2022-08-10T17:39:14.048Z,30.40
2022-08-10T17:41:44.750Z,30.40
2022-08-10T17:44:12.305Z,30.40
2022-08-10T17:46:40.817Z,30.30
2022-08-10T17:49:13.901Z,30.20
2022-08-10T17:51:43.254Z,30.10
2022-08-10T17:54:30.241Z,30.10
2022-08-10T17:57:00.794Z,30.00
2022-08-10T17:59:32.249Z,30.00
2022-08-10T18:02:08.563Z,29.90
2022-08-10T18:04:42.154Z,29.80
2022-08-10T18:07:11.260Z,29.80
2022-08-10T18:09:54.702Z,29.70
2022-08-10T18:12:36.057Z,29.60
2022-08-10T18:15:13.325Z,29.50
2022-08-10T18:17:46.769Z,29.40
2022-08-10T18:20:16.536Z,29.30
2022-08-10T18:22:50.544Z,29.20
2022-08-10T18:25:33.744Z,29.10
2022-08-10T18:28:08.494Z,29.10
2022-08-10T18:30:48.289Z,29.00
2022-08-10T18:33:18.273Z,28.90
2022-08-10T18:35:46.991Z,28.80
2022-08-10T18:38:16.387Z,28.70
2022-08-10T18:40:51.202Z,28.60
2022-08-10T18:44:11.915Z,28.50
2022-08-10T18:46:14.465Z,28.40
2022-08-10T18:48:49.562Z,28.30
2022-08-10T18:51:35.713Z,28.20
2022-08-10T18:54:31.686Z,28.20
2022-08-10T18:57:44.785Z,28.10
2022-08-10T19:00:13.841Z,28.00
2022-08-10T19:03:01.108Z,27.90
2022-08-10T19:05:40.196Z,27.90
2022-08-10T19:08:11.121Z,27.80
2022-08-10T19:10:44.669Z,27.80
2022-08-10T19:13:36.869Z,27.70
2022-08-10T19:16:35.719Z,27.70
2022-08-10T19:19:05.802Z,27.70
2022-08-10T19:21:53.570Z,27.60
2022-08-10T19:24:58.720Z,27.60
2022-08-10T19:28:10.541Z,27.50
2022-08-10T19:31:19.127Z,27.50
2022-08-10T19:34:39.800Z,27.50
2022-08-10T19:37:32.574Z,27.40
2022-08-10T19:40:16.782Z,27.40
2022-08-10T19:43:10.503Z,27.30
2022-08-10T19:46:06.202Z,27.20
2022-08-10T19:48:45.460Z,27.20
2022-08-10T19:51:41.882Z,27.10
2022-08-10T19:54:26.790Z,27.00
2022-08-10T19:57:02.811Z,27.00
2022-08-10T20:00:15.165Z,26.90
2022-08-10T20:02:28.820Z,26.80
2022-08-10T20:05:06.511Z,26.70
2022-08-10T20:07:42.693Z,26.70
2022-08-10T20:10:30.593Z,26.60
2022-08-10T20:13:22.790Z,26.60
2022-08-10T20:16:06.465Z,26.50
2022-08-10T20:18:39.565Z,26.50
2022-08-10T20:21:29.608Z,26.40
2022-08-10T20:24:30.070Z,26.40
2022-08-10T20:27:18.395Z,26.40
2022-08-10T20:30:13.100Z,26.30
2022-08-10T20:32:51.420Z,26.30
2022-08-10T20:35:46.353Z,26.30
2022-08-10T20:38:27.331Z,26.30
2022-08-10T20:41:24.088Z,26.30
2022-08-10T20:44:29.458Z,26.20
2022-08-10T20:47:11.802Z,26.20
2022-08-10T20:49:51.189Z,26.10
2022-08-10T20:52:20.828Z,26.10
2022-08-10T20:54:52.342Z,26.10
2022-08-10T20:58:04.053Z,26.10
2022-08-10T21:00:23.103Z,26.00
2022-08-10T21:03:31.748Z,26.00
2022-08-10T21:06:36.253Z,26.00
2022-08-10T21:09:47.781Z,25.90
2022-08-10T21:12:33.371Z,25.90
2022-08-10T21:15:08.321Z,25.90
2022-08-10T21:17:50.728Z,25.90
2022-08-10T21:20:36.387Z,25.80
2022-08-10T21:23:08.635Z,25.80
2022-08-10T21:25:45.430Z,25.80
2022-08-10T21:28:50.133Z,25.80
2022-08-10T21:31:46.015Z,25.80
2022-08-10T21:34:32.641Z,25.80
2022-08-10T21:37:09.016Z,25.80
2022-08-10T21:40:02.082Z,25.80
2022-08-10T21:43:13.349Z,25.80
2022-08-10T21:46:30.176Z,25.80
2022-08-10T21:49:23.034Z,25.80
2022-08-10T21:52:17.917Z,25.80
2022-08-10T21:55:19.866Z,25.80
2022-08-10T21:58:20.135Z,25.70
2022-08-10T22:01:15.201Z,25.70
2022-08-10T22:04:02.415Z,25.70
2022-08-10T22:06:54.534Z,25.60
2022-08-10T22:09:51.440Z,25.60
2022-08-10T22:12:46.980Z,25.60
2022-08-10T22:16:11.148Z,25.60
2022-08-10T22:18:53.839Z,25.50
2022-08-10T22:22:28.364Z,25.50
2022-08-10T22:25:21.143Z,25.40
2022-08-10T22:28:12.409Z,25.40
2022-08-10T22:34:39.614Z,25.40
2022-08-10T22:37:46.481Z,25.20
2022-08-10T22:40:37.976Z,25.20
2022-08-10T22:43:35.892Z,25.10
2022-08-10T22:46:30.579Z,25.00
2022-08-10T22:49:00.697Z,24.90
2022-08-10T22:51:56.287Z,24.80
2022-08-10T22:54:49.759Z,24.80
2022-08-10T22:57:36.405Z,24.70
2022-08-10T23:00:14.577Z,24.70
2022-08-10T23:02:56.174Z,24.60
2022-08-10T23:05:35.957Z,24.60
2022-08-10T23:08:30.333Z,24.50
2022-08-10T23:11:04.284Z,24.50
2022-08-10T23:13:42.319Z,24.50
2022-08-10T23:16:40.569Z,24.40
2022-08-10T23:19:25.250Z,24.30
2022-08-10T23:22:05.625Z,24.30
2022-08-10T23:24:44.853Z,24.20
2022-08-10T23:27:38.609Z,24.20
2022-08-10T23:30:10.182Z,24.20
2022-08-10T23:32:43.663Z,24.10
2022-08-10T23:36:28.132Z,24.10
2022-08-10T23:38:08.107Z,24.00
2022-08-10T23:40:36.585Z,24.00
2022-08-10T23:43:05.554Z,24.00
2022-08-10T23:45:53.414Z,24.00
2022-08-10T23:48:27.486Z,23.90
2022-08-10T23:50:59.821Z,23.90
2022-08-10T23:53:41.758Z,23.90
2022-08-10T23:56:12.786Z,23.90
2022-08-10T23:58:44.617Z,23.80
